Terminal Aerodrome Forecast
Issued by NWS

Home | Current Version | Previous Version | Text Only | Print | Product List | Glossary On
Versions: 1 2 3 4 5 6 7 8 9 10 11 12 13 14
000
FTUS41 KLWX 272300
TAFMTN
TAF
KMTN 272334Z 2800/2824 VRB04KT P6SM BKN080
     FM280600 30009KT P6SM FEW250
     FM281400 30013G20KT P6SM FEW050 SCT250
     FM282100 29007KT P6SM FEW090
      AMD NOT SKED 2802/2812=

USA.gov is the U.S. government's official web portal to all federal, state and local government web resources and services.